Terminal Aerodrome Forecast
Issued by NWS Shreveport, LA

Home | Current Version | Previous Version | Text Only | Print | Product List | Glossary On
Versions: 1 2 3 4 5 6 7 8 9 10 11 12 13 14 15 16
000
FTUS44 KSHV 012320
TAFTXK
TAF
KTXK 012320Z 0200/0224 22011KT P6SM FEW045
     FM021100 21008KT P6SM FEW015 BKN250
     FM021400 22019G25KT P6SM BKN250=

USA.gov is the U.S. government's official web portal to all federal, state and local government web resources and services.